sensor_id;sensor_type;location;lat;lon;timestamp;P1;durP1;ratioP1;P2;durP2;ratioP2
27857;SDS011;16852;51.446;6.528;2023-07-02T00:00:17;7.82;;;2.88;;
27857;SDS011;16852;51.446;6.528;2023-07-02T00:02:18;6.85;;;2.50;;
27857;SDS011;16852;51.446;6.528;2023-07-02T00:04:19;4.80;;;2.25;;
27857;SDS011;16852;51.446;6.528;2023-07-02T00:06:20;4.75;;;2.35;;
27857;SDS011;16852;51.446;6.528;2023-07-02T00:08:21;4.35;;;2.60;;
27857;SDS011;16852;51.446;6.528;2023-07-02T00:10:22;4.28;;;2.80;;
27857;SDS011;16852;51.446;6.528;2023-07-02T00:12:23;7.43;;;2.97;;
27857;SDS011;16852;51.446;6.528;2023-07-02T00:14:23;5.18;;;2.63;;
27857;SDS011;16852;51.446;6.528;2023-07-02T00:16:24;3.88;;;2.70;;
27857;SDS011;16852;51.446;6.528;2023-07-02T00:18:24;6.43;;;3.35;;
27857;SDS011;16852;51.446;6.528;2023-07-02T00:20:33;5.95;;;3.10;;
27857;SDS011;16852;51.446;6.528;2023-07-02T00:22:37;6.50;;;2.95;;
27857;SDS011;16852;51.446;6.528;2023-07-02T00:24:38;5.68;;;2.60;;
27857;SDS011;16852;51.446;6.528;2023-07-02T00:26:38;5.38;;;2.85;;
27857;SDS011;16852;51.446;6.528;2023-07-02T00:28:40;4.72;;;2.75;;
27857;SDS011;16852;51.446;6.528;2023-07-02T00:30:41;8.38;;;3.90;;
27857;SDS011;16852;51.446;6.528;2023-07-02T00:32:41;5.00;;;2.78;;
27857;SDS011;16852;51.446;6.528;2023-07-02T00:34:42;5.72;;;2.90;;
27857;SDS011;16852;51.446;6.528;2023-07-02T00:36:42;6.95;;;3.28;;
27857;SDS011;16852;51.446;6.528;2023-07-02T00:38:46;7.93;;;3.45;;
27857;SDS011;16852;51.446;6.528;2023-07-02T00:40:48;9.82;;;3.28;;
27857;SDS011;16852;51.446;6.528;2023-07-02T00:42:49;5.18;;;2.55;;
27857;SDS011;16852;51.446;6.528;2023-07-02T00:44:49;7.28;;;3.33;;
27857;SDS011;16852;51.446;6.528;2023-07-02T00:46:52;6.53;;;3.55;;
27857;SDS011;16852;51.446;6.528;2023-07-02T00:48:53;5.85;;;2.95;;
27857;SDS011;16852;51.446;6.528;2023-07-02T00:50:55;7.50;;;3.67;;
27857;SDS011;16852;51.446;6.528;2023-07-02T00:52:56;5.82;;;3.08;;
27857;SDS011;16852;51.446;6.528;2023-07-02T00:54:57;7.28;;;3.40;;
27857;SDS011;16852;51.446;6.528;2023-07-02T00:56:58;10.02;;;4.10;;
27857;SDS011;16852;51.446;6.528;2023-07-02T00:59:02;4.93;;;3.05;;
27857;SDS011;16852;51.446;6.528;2023-07-02T01:01:03;8.75;;;4.05;;
27857;SDS011;16852;51.446;6.528;2023-07-02T01:03:03;7.63;;;3.05;;
27857;SDS011;16852;51.446;6.528;2023-07-02T01:05:04;6.50;;;3.42;;
27857;SDS011;16852;51.446;6.528;2023-07-02T01:07:05;7.68;;;3.75;;
27857;SDS011;16852;51.446;6.528;2023-07-02T01:09:11;7.15;;;3.38;;
27857;SDS011;16852;51.446;6.528;2023-07-02T01:11:11;5.30;;;3.40;;
27857;SDS011;16852;51.446;6.528;2023-07-02T01:13:14;10.13;;;4.25;;
27857;SDS011;16852;51.446;6.528;2023-07-02T01:15:19;8.30;;;3.97;;
27857;SDS011;16852;51.446;6.528;2023-07-02T01:17:20;10.00;;;5.07;;
27857;SDS011;16852;51.446;6.528;2023-07-02T01:21:58;13.50;;;4.57;;
27857;SDS011;16852;51.446;6.528;2023-07-02T01:23:59;9.98;;;4.97;;
27857;SDS011;16852;51.446;6.528;2023-07-02T01:26:01;9.30;;;4.87;;
27857;SDS011;16852;51.446;6.528;2023-07-02T01:28:02;8.40;;;4.53;;
27857;SDS011;16852;51.446;6.528;2023-07-02T01:30:03;11.15;;;4.88;;
27857;SDS011;16852;51.446;6.528;2023-07-02T01:32:04;9.35;;;4.30;;
27857;SDS011;16852;51.446;6.528;2023-07-02T01:34:05;9.60;;;4.97;;
27857;SDS011;16852;51.446;6.528;2023-07-02T01:36:08;8.98;;;5.03;;
27857;SDS011;16852;51.446;6.528;2023-07-02T01:38:09;9.75;;;5.00;;
27857;SDS011;16852;51.446;6.528;2023-07-02T01:40:09;12.60;;;5.68;;
27857;SDS011;16852;51.446;6.528;2023-07-02T01:42:14;9.85;;;5.38;;
27857;SDS011;16852;51.446;6.528;2023-07-02T01:44:16;9.25;;;4.82;;
27857;SDS011;16852;51.446;6.528;2023-07-02T01:46:17;12.68;;;5.47;;
27857;SDS011;16852;51.446;6.528;2023-07-02T01:48:18;10.32;;;5.13;;
27857;SDS011;16852;51.446;6.528;2023-07-02T01:50:19;16.38;;;6.72;;
27857;SDS011;16852;51.446;6.528;2023-07-02T01:52:19;16.85;;;6.40;;
27857;SDS011;16852;51.446;6.528;2023-07-02T01:54:22;19.10;;;7.53;;
27857;SDS011;16852;51.446;6.528;2023-07-02T01:56:24;13.90;;;6.65;;
27857;SDS011;16852;51.446;6.528;2023-07-02T01:58:25;13.25;;;6.78;;
27857;SDS011;16852;51.446;6.528;2023-07-02T02:00:25;12.98;;;6.32;;
27857;SDS011;16852;51.446;6.528;2023-07-02T02:02:26;9.85;;;5.88;;
27857;SDS011;16852;51.446;6.528;2023-07-02T02:04:27;15.07;;;7.63;;
27857;SDS011;16852;51.446;6.528;2023-07-02T02:06:27;13.35;;;6.78;;
27857;SDS011;16852;51.446;6.528;2023-07-02T02:08:28;16.77;;;7.38;;
27857;SDS011;16852;51.446;6.528;2023-07-02T02:10:28;18.30;;;7.03;;
27857;SDS011;16852;51.446;6.528;2023-07-02T02:12:29;13.38;;;7.22;;
27857;SDS011;16852;51.446;6.528;2023-07-02T02:14:30;13.02;;;7.18;;
27857;SDS011;16852;51.446;6.528;2023-07-02T02:16:30;16.15;;;7.85;;
27857;SDS011;16852;51.446;6.528;2023-07-02T02:20:35;16.42;;;8.40;;
27857;SDS011;16852;51.446;6.528;2023-07-02T02:22:36;16.23;;;7.75;;
27857;SDS011;16852;51.446;6.528;2023-07-02T02:24:37;15.45;;;7.97;;
27857;SDS011;16852;51.446;6.528;2023-07-02T02:26:37;22.50;;;8.13;;
27857;SDS011;16852;51.446;6.528;2023-07-02T02:28:38;13.10;;;7.95;;
27857;SDS011;16852;51.446;6.528;2023-07-02T02:30:38;17.83;;;8.25;;
27857;SDS011;16852;51.446;6.528;2023-07-02T02:32:39;17.13;;;9.15;;
27857;SDS011;16852;51.446;6.528;2023-07-02T02:34:39;18.65;;;8.55;;
27857;SDS011;16852;51.446;6.528;2023-07-02T02:36:40;16.35;;;9.18;;
27857;SDS011;16852;51.446;6.528;2023-07-02T02:38:41;20.00;;;8.63;;
27857;SDS011;16852;51.446;6.528;2023-07-02T02:40:41;16.70;;;8.18;;
27857;SDS011;16852;51.446;6.528;2023-07-02T02:42:42;18.40;;;8.77;;
27857;SDS011;16852;51.446;6.528;2023-07-02T02:44:42;20.00;;;8.95;;
27857;SDS011;16852;51.446;6.528;2023-07-02T02:46:43;22.30;;;9.77;;
27857;SDS011;16852;51.446;6.528;2023-07-02T02:48:43;17.83;;;9.00;;
27857;SDS011;16852;51.446;6.528;2023-07-02T02:50:44;19.17;;;9.10;;
27857;SDS011;16852;51.446;6.528;2023-07-02T02:52:45;20.63;;;9.82;;
27857;SDS011;16852;51.446;6.528;2023-07-02T02:54:46;17.75;;;8.77;;
27857;SDS011;16852;51.446;6.528;2023-07-02T02:56:46;18.75;;;9.40;;
27857;SDS011;16852;51.446;6.528;2023-07-02T02:58:47;21.40;;;9.10;;
27857;SDS011;16852;51.446;6.528;2023-07-02T03:00:48;16.90;;;8.95;;
27857;SDS011;16852;51.446;6.528;2023-07-02T03:02:49;18.77;;;9.35;;
27857;SDS011;16852;51.446;6.528;2023-07-02T03:04:49;19.98;;;9.95;;
27857;SDS011;16852;51.446;6.528;2023-07-02T03:06:50;18.70;;;9.73;;
27857;SDS011;16852;51.446;6.528;2023-07-02T03:08:52;17.95;;;9.05;;
27857;SDS011;16852;51.446;6.528;2023-07-02T03:10:53;19.38;;;8.90;;
27857;SDS011;16852;51.446;6.528;2023-07-02T03:12:54;21.60;;;10.05;;
27857;SDS011;16852;51.446;6.528;2023-07-02T03:14:54;21.52;;;9.93;;
27857;SDS011;16852;51.446;6.528;2023-07-02T03:16:55;16.23;;;8.55;;
27857;SDS011;16852;51.446;6.528;2023-07-02T03:18:56;18.08;;;9.23;;
27857;SDS011;16852;51.446;6.528;2023-07-02T03:20:56;18.83;;;9.85;;
27857;SDS011;16852;51.446;6.528;2023-07-02T03:22:57;20.20;;;10.30;;
27857;SDS011;16852;51.446;6.528;2023-07-02T03:24:58;19.95;;;10.85;;
27857;SDS011;16852;51.446;6.528;2023-07-02T03:26:58;26.30;;;11.45;;
27857;SDS011;16852;51.446;6.528;2023-07-02T03:28:59;25.08;;;10.52;;
27857;SDS011;16852;51.446;6.528;2023-07-02T03:30:59;22.75;;;10.00;;
27857;SDS011;16852;51.446;6.528;2023-07-02T03:33:00;21.85;;;10.20;;
27857;SDS011;16852;51.446;6.528;2023-07-02T03:35:01;19.80;;;10.20;;
27857;SDS011;16852;51.446;6.528;2023-07-02T03:37:01;33.03;;;11.57;;
27857;SDS011;16852;51.446;6.528;2023-07-02T03:39:02;20.17;;;10.13;;
27857;SDS011;16852;51.446;6.528;2023-07-02T03:41:03;19.20;;;10.40;;
27857;SDS011;16852;51.446;6.528;2023-07-02T03:43:04;18.70;;;10.15;;
27857;SDS011;16852;51.446;6.528;2023-07-02T03:45:04;17.15;;;10.05;;
27857;SDS011;16852;51.446;6.528;2023-07-02T03:47:05;18.33;;;11.10;;
27857;SDS011;16852;51.446;6.528;2023-07-02T03:49:08;23.23;;;11.20;;
27857;SDS011;16852;51.446;6.528;2023-07-02T03:51:08;24.25;;;12.35;;
27857;SDS011;16852;51.446;6.528;2023-07-02T03:53:09;24.85;;;10.57;;
27857;SDS011;16852;51.446;6.528;2023-07-02T03:55:10;19.02;;;10.07;;
27857;SDS011;16852;51.446;6.528;2023-07-02T03:57:10;17.80;;;10.20;;
27857;SDS011;16852;51.446;6.528;2023-07-02T03:59:11;20.73;;;9.80;;
27857;SDS011;16852;51.446;6.528;2023-07-02T04:01:11;20.70;;;11.15;;
27857;SDS011;16852;51.446;6.528;2023-07-02T04:03:12;22.33;;;11.68;;
27857;SDS011;16852;51.446;6.528;2023-07-02T04:05:13;18.58;;;10.40;;
27857;SDS011;16852;51.446;6.528;2023-07-02T04:07:13;19.98;;;10.30;;
27857;SDS011;16852;51.446;6.528;2023-07-02T04:09:14;23.15;;;12.02;;
27857;SDS011;16852;51.446;6.528;2023-07-02T04:11:14;19.02;;;10.25;;
27857;SDS011;16852;51.446;6.528;2023-07-02T04:13:15;29.58;;;12.20;;
27857;SDS011;16852;51.446;6.528;2023-07-02T04:15:16;20.75;;;11.60;;
27857;SDS011;16852;51.446;6.528;2023-07-02T04:17:16;24.25;;;12.15;;
27857;SDS011;16852;51.446;6.528;2023-07-02T04:19:17;22.48;;;11.32;;
27857;SDS011;16852;51.446;6.528;2023-07-02T04:21:17;25.90;;;12.75;;
27857;SDS011;16852;51.446;6.528;2023-07-02T04:23:18;22.60;;;11.48;;
27857;SDS011;16852;51.446;6.528;2023-07-02T04:25:19;24.00;;;13.07;;
27857;SDS011;16852;51.446;6.528;2023-07-02T04:27:19;22.10;;;11.75;;
27857;SDS011;16852;51.446;6.528;2023-07-02T04:29:20;22.92;;;12.40;;
27857;SDS011;16852;51.446;6.528;2023-07-02T04:31:21;28.00;;;12.88;;
27857;SDS011;16852;51.446;6.528;2023-07-02T04:33:21;21.15;;;12.60;;
27857;SDS011;16852;51.446;6.528;2023-07-02T04:35:22;28.55;;;12.70;;
27857;SDS011;16852;51.446;6.528;2023-07-02T04:37:23;25.42;;;12.82;;
27857;SDS011;16852;51.446;6.528;2023-07-02T04:39:23;19.65;;;11.05;;
27857;SDS011;16852;51.446;6.528;2023-07-02T04:41:24;27.67;;;13.10;;
27857;SDS011;16852;51.446;6.528;2023-07-02T04:43:24;21.08;;;11.20;;
27857;SDS011;16852;51.446;6.528;2023-07-02T04:45:26;29.00;;;13.20;;
27857;SDS011;16852;51.446;6.528;2023-07-02T04:47:31;29.90;;;13.13;;
27857;SDS011;16852;51.446;6.528;2023-07-02T04:49:32;26.13;;;12.98;;
27857;SDS011;16852;51.446;6.528;2023-07-02T04:51:33;29.13;;;13.80;;
27857;SDS011;16852;51.446;6.528;2023-07-02T04:53:33;26.30;;;12.95;;
27857;SDS011;16852;51.446;6.528;2023-07-02T04:55:34;23.15;;;11.88;;
27857;SDS011;16852;51.446;6.528;2023-07-02T04:57:35;24.05;;;12.57;;
27857;SDS011;16852;51.446;6.528;2023-07-02T04:59:35;23.60;;;12.40;;
27857;SDS011;16852;51.446;6.528;2023-07-02T05:01:36;26.67;;;13.05;;
27857;SDS011;16852;51.446;6.528;2023-07-02T05:03:37;24.60;;;12.50;;
27857;SDS011;16852;51.446;6.528;2023-07-02T05:05:38;23.02;;;12.77;;
27857;SDS011;16852;51.446;6.528;2023-07-02T05:07:40;24.35;;;12.93;;
27857;SDS011;16852;51.446;6.528;2023-07-02T05:09:40;27.67;;;13.40;;
27857;SDS011;16852;51.446;6.528;2023-07-02T05:11:41;22.42;;;12.30;;
27857;SDS011;16852;51.446;6.528;2023-07-02T05:13:42;19.52;;;11.35;;
27857;SDS011;16852;51.446;6.528;2023-07-02T05:15:42;23.70;;;12.98;;
27857;SDS011;16852;51.446;6.528;2023-07-02T05:17:43;28.02;;;13.43;;
27857;SDS011;16852;51.446;6.528;2023-07-02T05:19:43;28.13;;;13.32;;
27857;SDS011;16852;51.446;6.528;2023-07-02T05:21:44;24.73;;;13.32;;
27857;SDS011;16852;51.446;6.528;2023-07-02T05:23:45;28.63;;;13.85;;
27857;SDS011;16852;51.446;6.528;2023-07-02T05:25:45;30.08;;;13.48;;
27857;SDS011;16852;51.446;6.528;2023-07-02T05:27:46;31.20;;;14.30;;
27857;SDS011;16852;51.446;6.528;2023-07-02T05:29:47;22.77;;;12.85;;
27857;SDS011;16852;51.446;6.528;2023-07-02T05:31:47;26.85;;;13.23;;
27857;SDS011;16852;51.446;6.528;2023-07-02T05:33:48;27.67;;;13.45;;
27857;SDS011;16852;51.446;6.528;2023-07-02T05:35:48;29.40;;;15.50;;
27857;SDS011;16852;51.446;6.528;2023-07-02T05:37:49;24.05;;;13.35;;
27857;SDS011;16852;51.446;6.528;2023-07-02T05:39:49;25.80;;;13.52;;
27857;SDS011;16852;51.446;6.528;2023-07-02T05:41:50;23.55;;;12.52;;
27857;SDS011;16852;51.446;6.528;2023-07-02T05:43:50;23.90;;;12.55;;
27857;SDS011;16852;51.446;6.528;2023-07-02T05:45:51;24.38;;;12.50;;
27857;SDS011;16852;51.446;6.528;2023-07-02T05:47:52;23.80;;;12.15;;
27857;SDS011;16852;51.446;6.528;2023-07-02T05:49:53;25.00;;;13.38;;
27857;SDS011;16852;51.446;6.528;2023-07-02T05:51:53;28.67;;;12.38;;
27857;SDS011;16852;51.446;6.528;2023-07-02T05:53:54;26.55;;;13.75;;
27857;SDS011;16852;51.446;6.528;2023-07-02T05:55:54;26.90;;;13.57;;
27857;SDS011;16852;51.446;6.528;2023-07-02T05:57:55;28.88;;;13.85;;
27857;SDS011;16852;51.446;6.528;2023-07-02T06:00:01;26.95;;;13.18;;
27857;SDS011;16852;51.446;6.528;2023-07-02T06:02:02;25.33;;;13.15;;
27857;SDS011;16852;51.446;6.528;2023-07-02T06:04:03;30.73;;;14.02;;
27857;SDS011;16852;51.446;6.528;2023-07-02T06:06:03;25.05;;;13.43;;
27857;SDS011;16852;51.446;6.528;2023-07-02T06:08:04;27.33;;;13.63;;
27857;SDS011;16852;51.446;6.528;2023-07-02T06:10:05;21.77;;;11.40;;
27857;SDS011;16852;51.446;6.528;2023-07-02T06:12:06;26.05;;;12.82;;
27857;SDS011;16852;51.446;6.528;2023-07-02T06:14:06;21.02;;;12.05;;
27857;SDS011;16852;51.446;6.528;2023-07-02T06:16:07;24.45;;;11.35;;
27857;SDS011;16852;51.446;6.528;2023-07-02T06:18:08;28.75;;;14.18;;
27857;SDS011;16852;51.446;6.528;2023-07-02T06:20:08;22.35;;;11.80;;
27857;SDS011;16852;51.446;6.528;2023-07-02T06:22:09;22.25;;;11.38;;
27857;SDS011;16852;51.446;6.528;2023-07-02T06:24:10;22.30;;;11.75;;
27857;SDS011;16852;51.446;6.528;2023-07-02T06:26:10;22.63;;;11.68;;
27857;SDS011;16852;51.446;6.528;2023-07-02T06:28:11;26.20;;;12.13;;
27857;SDS011;16852;51.446;6.528;2023-07-02T06:30:12;24.90;;;11.30;;
27857;SDS011;16852;51.446;6.528;2023-07-02T06:32:13;20.45;;;10.02;;
27857;SDS011;16852;51.446;6.528;2023-07-02T06:34:13;20.42;;;10.70;;
27857;SDS011;16852;51.446;6.528;2023-07-02T06:36:14;24.60;;;9.75;;
27857;SDS011;16852;51.446;6.528;2023-07-02T06:38:15;19.95;;;10.30;;
27857;SDS011;16852;51.446;6.528;2023-07-02T06:40:15;24.48;;;11.23;;
27857;SDS011;16852;51.446;6.528;2023-07-02T06:42:16;24.98;;;11.77;;
27857;SDS011;16852;51.446;6.528;2023-07-02T06:44:16;22.70;;;10.68;;
27857;SDS011;16852;51.446;6.528;2023-07-02T06:46:17;25.23;;;12.18;;
27857;SDS011;16852;51.446;6.528;2023-07-02T06:48:18;21.50;;;11.23;;
27857;SDS011;16852;51.446;6.528;2023-07-02T06:50:21;20.83;;;10.40;;
27857;SDS011;16852;51.446;6.528;2023-07-02T06:52:22;22.85;;;10.77;;
27857;SDS011;16852;51.446;6.528;2023-07-02T06:54:23;17.10;;;9.00;;
27857;SDS011;16852;51.446;6.528;2023-07-02T06:56:24;20.58;;;9.48;;
27857;SDS011;16852;51.446;6.528;2023-07-02T06:58:24;16.58;;;9.25;;
27857;SDS011;16852;51.446;6.528;2023-07-02T07:00:25;23.77;;;9.80;;
27857;SDS011;16852;51.446;6.528;2023-07-02T07:02:26;21.83;;;10.05;;
27857;SDS011;16852;51.446;6.528;2023-07-02T07:04:27;18.45;;;8.85;;
27857;SDS011;16852;51.446;6.528;2023-07-02T07:06:28;18.75;;;9.20;;
27857;SDS011;16852;51.446;6.528;2023-07-02T07:08:29;18.95;;;8.88;;
27857;SDS011;16852;51.446;6.528;2023-07-02T07:10:30;19.02;;;9.43;;
27857;SDS011;16852;51.446;6.528;2023-07-02T07:12:34;19.65;;;8.57;;
27857;SDS011;16852;51.446;6.528;2023-07-02T07:14:35;23.23;;;9.85;;
27857;SDS011;16852;51.446;6.528;2023-07-02T07:16:35;24.05;;;9.27;;
27857;SDS011;16852;51.446;6.528;2023-07-02T07:18:36;23.40;;;10.20;;
27857;SDS011;16852;51.446;6.528;2023-07-02T07:20:38;18.83;;;8.70;;
27857;SDS011;16852;51.446;6.528;2023-07-02T07:22:40;21.05;;;10.13;;
27857;SDS011;16852;51.446;6.528;2023-07-02T07:24:41;19.45;;;8.75;;
27857;SDS011;16852;51.446;6.528;2023-07-02T07:26:42;17.40;;;9.18;;
27857;SDS011;16852;51.446;6.528;2023-07-02T07:28:42;15.57;;;8.20;;
27857;SDS011;16852;51.446;6.528;2023-07-02T07:30:43;25.35;;;10.07;;
27857;SDS011;16852;51.446;6.528;2023-07-02T07:32:44;19.83;;;9.43;;
27857;SDS011;16852;51.446;6.528;2023-07-02T07:34:45;20.15;;;9.82;;
27857;SDS011;16852;51.446;6.528;2023-07-02T07:36:45;19.83;;;8.75;;
27857;SDS011;16852;51.446;6.528;2023-07-02T07:38:46;18.60;;;8.68;;
27857;SDS011;16852;51.446;6.528;2023-07-02T07:40:46;20.05;;;8.65;;
27857;SDS011;16852;51.446;6.528;2023-07-02T07:42:47;13.50;;;7.25;;
27857;SDS011;16852;51.446;6.528;2023-07-02T07:44:48;17.92;;;8.43;;
27857;SDS011;16852;51.446;6.528;2023-07-02T07:46:48;21.98;;;8.27;;
27857;SDS011;16852;51.446;6.528;2023-07-02T07:48:49;19.67;;;8.25;;
27857;SDS011;16852;51.446;6.528;2023-07-02T07:50:49;16.25;;;7.75;;
27857;SDS011;16852;51.446;6.528;2023-07-02T07:52:50;18.63;;;8.23;;
27857;SDS011;16852;51.446;6.528;2023-07-02T07:54:51;14.10;;;7.22;;
27857;SDS011;16852;51.446;6.528;2023-07-02T07:56:52;14.50;;;7.03;;
27857;SDS011;16852;51.446;6.528;2023-07-02T07:58:52;17.15;;;7.90;;
27857;SDS011;16852;51.446;6.528;2023-07-02T08:00:53;16.63;;;7.13;;
27857;SDS011;16852;51.446;6.528;2023-07-02T08:02:53;18.10;;;7.95;;
27857;SDS011;16852;51.446;6.528;2023-07-02T08:04:55;15.97;;;6.93;;
27857;SDS011;16852;51.446;6.528;2023-07-02T08:06:56;14.77;;;6.80;;
27857;SDS011;16852;51.446;6.528;2023-07-02T08:08:57;16.20;;;6.93;;
27857;SDS011;16852;51.446;6.528;2023-07-02T08:10:57;13.52;;;6.25;;
27857;SDS011;16852;51.446;6.528;2023-07-02T08:12:58;13.57;;;6.93;;
27857;SDS011;16852;51.446;6.528;2023-07-02T08:14:58;13.85;;;6.90;;
27857;SDS011;16852;51.446;6.528;2023-07-02T08:16:59;12.95;;;6.55;;
27857;SDS011;16852;51.446;6.528;2023-07-02T08:19:00;12.52;;;6.25;;
27857;SDS011;16852;51.446;6.528;2023-07-02T08:21:01;18.07;;;6.93;;
27857;SDS011;16852;51.446;6.528;2023-07-02T08:23:02;12.90;;;6.22;;
27857;SDS011;16852;51.446;6.528;2023-07-02T08:25:03;15.40;;;6.82;;
27857;SDS011;16852;51.446;6.528;2023-07-02T08:27:04;11.23;;;5.88;;
27857;SDS011;16852;51.446;6.528;2023-07-02T08:29:05;17.15;;;6.95;;
27857;SDS011;16852;51.446;6.528;2023-07-02T08:31:06;12.70;;;6.25;;
27857;SDS011;16852;51.446;6.528;2023-07-02T08:33:06;15.70;;;7.20;;
27857;SDS011;16852;51.446;6.528;2023-07-02T08:35:07;13.75;;;6.22;;
27857;SDS011;16852;51.446;6.528;2023-07-02T08:37:08;16.60;;;6.93;;
27857;SDS011;16852;51.446;6.528;2023-07-02T08:39:09;12.77;;;6.97;;
27857;SDS011;16852;51.446;6.528;2023-07-02T08:41:11;14.05;;;6.97;;
27857;SDS011;16852;51.446;6.528;2023-07-02T08:43:12;15.52;;;6.47;;
27857;SDS011;16852;51.446;6.528;2023-07-02T08:45:13;13.07;;;6.93;;
27857;SDS011;16852;51.446;6.528;2023-07-02T08:47:16;12.40;;;6.45;;
27857;SDS011;16852;51.446;6.528;2023-07-02T08:49:17;17.08;;;6.35;;
27857;SDS011;16852;51.446;6.528;2023-07-02T08:51:18;14.50;;;6.53;;
27857;SDS011;16852;51.446;6.528;2023-07-02T08:53:18;17.67;;;7.05;;
27857;SDS011;16852;51.446;6.528;2023-07-02T08:55:19;16.63;;;7.22;;
27857;SDS011;16852;51.446;6.528;2023-07-02T08:57:20;16.08;;;7.55;;
27857;SDS011;16852;51.446;6.528;2023-07-02T08:59:21;18.70;;;6.93;;
27857;SDS011;16852;51.446;6.528;2023-07-02T09:01:22;17.85;;;7.43;;
27857;SDS011;16852;51.446;6.528;2023-07-02T09:03:22;16.27;;;6.93;;
27857;SDS011;16852;51.446;6.528;2023-07-02T09:05:25;19.48;;;7.43;;
27857;SDS011;16852;51.446;6.528;2023-07-02T09:07:26;17.83;;;7.40;;
27857;SDS011;16852;51.446;6.528;2023-07-02T09:09:27;17.83;;;7.55;;
27857;SDS011;16852;51.446;6.528;2023-07-02T09:11:27;17.63;;;7.75;;
27857;SDS011;16852;51.446;6.528;2023-07-02T09:13:28;15.90;;;7.28;;
27857;SDS011;16852;51.446;6.528;2023-07-02T09:15:34;16.00;;;7.63;;
27857;SDS011;16852;51.446;6.528;2023-07-02T09:17:39;17.45;;;6.82;;
27857;SDS011;16852;51.446;6.528;2023-07-02T09:19:49;15.63;;;7.13;;
27857;SDS011;16852;51.446;6.528;2023-07-02T09:21:51;16.02;;;7.25;;
27857;SDS011;16852;51.446;6.528;2023-07-02T09:23:52;13.52;;;6.78;;
27857;SDS011;16852;51.446;6.528;2023-07-02T09:25:55;14.00;;;6.28;;
27857;SDS011;16852;51.446;6.528;2023-07-02T09:27:55;12.55;;;6.20;;
27857;SDS011;16852;51.446;6.528;2023-07-02T09:29:56;12.35;;;6.25;;
27857;SDS011;16852;51.446;6.528;2023-07-02T09:31:58;14.55;;;6.53;;
27857;SDS011;16852;51.446;6.528;2023-07-02T09:34:03;14.07;;;6.85;;
27857;SDS011;16852;51.446;6.528;2023-07-02T09:36:03;13.82;;;5.65;;
27857;SDS011;16852;51.446;6.528;2023-07-02T09:38:05;13.13;;;6.05;;
27857;SDS011;16852;51.446;6.528;2023-07-02T09:40:06;17.00;;;5.85;;
27857;SDS011;16852;51.446;6.528;2023-07-02T09:42:09;14.05;;;6.03;;
27857;SDS011;16852;51.446;6.528;2023-07-02T09:44:10;12.67;;;6.30;;
27857;SDS011;16852;51.446;6.528;2023-07-02T09:46:13;10.95;;;5.68;;
27857;SDS011;16852;51.446;6.528;2023-07-02T09:48:14;13.68;;;5.97;;
27857;SDS011;16852;51.446;6.528;2023-07-02T09:50:16;12.00;;;5.63;;
27857;SDS011;16852;51.446;6.528;2023-07-02T09:52:19;10.43;;;5.63;;
27857;SDS011;16852;51.446;6.528;2023-07-02T09:54:19;11.65;;;5.75;;
27857;SDS011;16852;51.446;6.528;2023-07-02T09:56:20;11.15;;;5.55;;
27857;SDS011;16852;51.446;6.528;2023-07-02T09:58:21;11.63;;;5.65;;
27857;SDS011;16852;51.446;6.528;2023-07-02T10:00:22;15.38;;;6.47;;
27857;SDS011;16852;51.446;6.528;2023-07-02T10:02:22;11.55;;;6.10;;
27857;SDS011;16852;51.446;6.528;2023-07-02T10:04:23;19.92;;;7.40;;
27857;SDS011;16852;51.446;6.528;2023-07-02T10:06:24;11.02;;;5.72;;
27857;SDS011;16852;51.446;6.528;2023-07-02T10:08:25;13.32;;;6.13;;
27857;SDS011;16852;51.446;6.528;2023-07-02T10:10:30;13.25;;;6.25;;
27857;SDS011;16852;51.446;6.528;2023-07-02T10:12:31;12.75;;;6.10;;
27857;SDS011;16852;51.446;6.528;2023-07-02T10:14:41;12.23;;;5.70;;
27857;SDS011;16852;51.446;6.528;2023-07-02T10:16:50;13.70;;;6.57;;
27857;SDS011;16852;51.446;6.528;2023-07-02T10:18:51;13.68;;;6.53;;
27857;SDS011;16852;51.446;6.528;2023-07-02T10:20:52;13.95;;;6.05;;
27857;SDS011;16852;51.446;6.528;2023-07-02T10:22:53;13.88;;;6.03;;
27857;SDS011;16852;51.446;6.528;2023-07-02T10:24:57;13.63;;;5.53;;
27857;SDS011;16852;51.446;6.528;2023-07-02T10:27:01;11.02;;;5.72;;
27857;SDS011;16852;51.446;6.528;2023-07-02T10:29:03;14.35;;;6.55;;
27857;SDS011;16852;51.446;6.528;2023-07-02T10:31:03;12.93;;;5.38;;
27857;SDS011;16852;51.446;6.528;2023-07-02T10:33:07;9.48;;;5.55;;
27857;SDS011;16852;51.446;6.528;2023-07-02T10:35:15;9.32;;;4.72;;
27857;SDS011;16852;51.446;6.528;2023-07-02T10:37:18;14.60;;;6.55;;
27857;SDS011;16852;51.446;6.528;2023-07-02T10:39:19;13.52;;;5.57;;
27857;SDS011;16852;51.446;6.528;2023-07-02T10:41:23;11.45;;;5.65;;
27857;SDS011;16852;51.446;6.528;2023-07-02T10:43:28;14.85;;;6.70;;
27857;SDS011;16852;51.446;6.528;2023-07-02T10:45:31;16.65;;;7.00;;
27857;SDS011;16852;51.446;6.528;2023-07-02T10:47:33;13.18;;;6.07;;
27857;SDS011;16852;51.446;6.528;2023-07-02T10:49:33;14.25;;;6.43;;
27857;SDS011;16852;51.446;6.528;2023-07-02T10:51:34;14.02;;;6.55;;
27857;SDS011;16852;51.446;6.528;2023-07-02T10:53:34;10.70;;;5.68;;
27857;SDS011;16852;51.446;6.528;2023-07-02T10:55:35;13.35;;;5.75;;
27857;SDS011;16852;51.446;6.528;2023-07-02T10:57:35;15.23;;;5.85;;
27857;SDS011;16852;51.446;6.528;2023-07-02T10:59:36;12.82;;;5.50;;
27857;SDS011;16852;51.446;6.528;2023-07-02T11:01:36;12.65;;;5.82;;
27857;SDS011;16852;51.446;6.528;2023-07-02T11:03:37;13.45;;;5.53;;
27857;SDS011;16852;51.446;6.528;2023-07-02T11:05:38;13.73;;;5.18;;
27857;SDS011;16852;51.446;6.528;2023-07-02T11:07:39;11.10;;;5.20;;
27857;SDS011;16852;51.446;6.528;2023-07-02T11:09:49;10.82;;;5.43;;
27857;SDS011;16852;51.446;6.528;2023-07-02T11:11:54;16.02;;;6.65;;
27857;SDS011;16852;51.446;6.528;2023-07-02T11:13:59;15.98;;;5.93;;
27857;SDS011;16852;51.446;6.528;2023-07-02T11:15:59;9.90;;;5.13;;
27857;SDS011;16852;51.446;6.528;2023-07-02T11:18:08;11.52;;;5.75;;
27857;SDS011;16852;51.446;6.528;2023-07-02T11:20:12;11.52;;;5.35;;
27857;SDS011;16852;51.446;6.528;2023-07-02T11:22:14;11.52;;;5.18;;
27857;SDS011;16852;51.446;6.528;2023-07-02T11:24:14;13.00;;;5.70;;
27857;SDS011;16852;51.446;6.528;2023-07-02T11:26:15;10.68;;;5.20;;
27857;SDS011;16852;51.446;6.528;2023-07-02T11:28:15;12.15;;;5.55;;
27857;SDS011;16852;51.446;6.528;2023-07-02T11:30:16;11.95;;;6.03;;
27857;SDS011;16852;51.446;6.528;2023-07-02T11:32:17;12.02;;;5.40;;
27857;SDS011;16852;51.446;6.528;2023-07-02T11:34:18;12.25;;;5.38;;
27857;SDS011;16852;51.446;6.528;2023-07-02T11:36:21;11.23;;;5.10;;
27857;SDS011;16852;51.446;6.528;2023-07-02T11:38:26;13.60;;;5.82;;
27857;SDS011;16852;51.446;6.528;2023-07-02T11:40:26;14.32;;;5.82;;
27857;SDS011;16852;51.446;6.528;2023-07-02T11:42:29;13.00;;;5.90;;
27857;SDS011;16852;51.446;6.528;2023-07-02T11:44:30;10.98;;;5.57;;
27857;SDS011;16852;51.446;6.528;2023-07-02T11:46:30;13.93;;;6.07;;
27857;SDS011;16852;51.446;6.528;2023-07-02T11:48:31;13.23;;;6.03;;
27857;SDS011;16852;51.446;6.528;2023-07-02T11:50:31;14.88;;;5.70;;
27857;SDS011;16852;51.446;6.528;2023-07-02T11:52:32;11.43;;;5.50;;
27857;SDS011;16852;51.446;6.528;2023-07-02T11:54:32;16.33;;;6.00;;
27857;SDS011;16852;51.446;6.528;2023-07-02T11:56:33;11.63;;;5.97;;
27857;SDS011;16852;51.446;6.528;2023-07-02T11:58:34;16.65;;;6.32;;
27857;SDS011;16852;51.446;6.528;2023-07-02T12:00:34;19.98;;;5.78;;
27857;SDS011;16852;51.446;6.528;2023-07-02T12:02:35;15.75;;;6.45;;